Time;durP1;ratioP1;P1;durP2;ratioP2;P2;SDS_P1;SDS_P2;PMS_P1;PMS_P2;Temp;Humidity;BMP_temperature;BMP_pressure;BME280_temperature;BME280_humidity;BME280_pressure;Samples;Min_cycle;Max_cycle;Signal;HPM_P1;HPM_P2
2021/07/23 00:02:16;;;;;;;;;;;;;;;22.09;27.96;97914.47;5108220;28;722;-87
2021/07/23 00:04:42;;;;;;;;;;;;;;;21.97;28.13;97918.09;5089685;28;848;-87
2021/07/23 00:07:08;;;;;;;;;;;;;;;21.95;28.05;97904.34;5073478;28;1178;-87
2021/07/23 00:09:33;;;;;;;;;;;;;;;21.97;28.00;97918.09;5090681;28;1316;-87
2021/07/23 00:11:59;;;;;;;;;;;;;;;21.92;28.50;97921.47;5090752;28;1417;-87
2021/07/23 00:14:25;;;;;;;;;;;;;;;21.85;28.64;97917.59;5107474;28;1980;-86
2021/07/23 00:16:51;;;;;;;;;;;;;;;22.09;27.95;97914.47;5090736;28;1307;-86
2021/07/23 00:19:16;;;;;;;;;;;;;;;22.12;28.02;97909.97;5089891;28;1316;-86
2021/07/23 00:21:41;;;;;;;;;;;;;;;22.04;28.13;97906.53;5090356;28;1265;-87
2021/07/23 00:24:07;;;;;;;;;;;;;;;22.00;28.30;97905.84;5107031;28;882;-87
2021/07/23 00:26:32;;;;;;;;;;;;;;;21.98;28.12;97902.69;5107508;28;657;-86
2021/07/23 00:28:58;;;;;;;;;;;;;;;22.07;28.06;97900.78;5107341;28;586;-85
2021/07/23 00:31:23;;;;;;;;;;;;;;;22.04;28.01;97903.69;5090968;28;1179;-87
2021/07/23 00:33:49;;;;;;;;;;;;;;;22.04;28.47;97895.19;5107158;28;1968;-86
2021/07/23 00:36:14;;;;;;;;;;;;;;;22.08;28.21;97895.91;5090596;28;1029;-87
2021/07/23 00:38:40;;;;;;;;;;;;;;;22.02;28.26;97894.84;5089940;28;848;-86
2021/07/23 00:41:05;;;;;;;;;;;;;;;22.15;27.90;97895.69;5090343;28;1197;-86
2021/07/23 00:43:33;;;;;;;;;;;;;;;22.13;28.25;97897.41;5090275;28;1375;-87
2021/07/23 00:45:59;;;;;;;;;;;;;;;22.07;28.09;97888.63;5090378;28;1505;-87
2021/07/23 00:48:25;;;;;;;;;;;;;;;22.07;28.10;97888.63;5106509;28;861;-86
2021/07/23 00:50:50;;;;;;;;;;;;;;;22.06;28.08;97893.50;5090389;28;1326;-84
2021/07/23 00:53:16;;;;;;;;;;;;;;;22.02;28.14;97892.00;5089439;28;1955;-87
2021/07/23 00:55:45;;;;;;;;;;;;;;;22.07;28.15;97883.78;5090250;28;1205;-87
2021/07/23 00:58:11;;;;;;;;;;;;;;;22.09;28.07;97886.94;5089969;28;1494;-86
2021/07/23 01:00:39;;;;;;;;;;;;;;;21.89;28.41;97883.50;5073012;28;1200;-87
2021/07/23 01:03:05;;;;;;;;;;;;;;;21.98;28.32;97885.69;5073663;28;1301;-86
2021/07/23 01:05:31;;;;;;;;;;;;;;;22.17;28.03;97887.53;5107192;28;1154;-86
2021/07/23 01:07:57;;;;;;;;;;;;;;;22.06;27.95;97876.50;5090251;28;1190;-87
2021/07/23 01:10:22;;;;;;;;;;;;;;;22.09;27.98;97886.13;5073253;28;1146;-87
2021/07/23 01:13:17;;;;;;;;;;;;;;;21.98;28.05;97885.69;5097792;28;1894;-86
2021/07/23 01:15:44;;;;;;;;;;;;;;;21.93;28.11;97894.72;5089882;28;1363;-86
2021/07/23 01:18:11;;;;;;;;;;;;;;;22.06;27.90;97884.19;5072844;28;1182;-87
2021/07/23 01:20:37;;;;;;;;;;;;;;;22.03;27.82;97894.41;5089775;28;1197;-87
2021/07/23 01:23:03;;;;;;;;;;;;;;;21.90;28.03;97896.41;5071715;28;1321;-87
2021/07/23 01:25:31;;;;;;;;;;;;;;;22.02;27.90;97886.34;5089993;28;1249;-87
2021/07/23 01:27:57;;;;;;;;;;;;;;;21.95;27.87;97897.91;5089492;28;1236;-86
2021/07/23 01:30:38;;;;;;;;;;;;;;;21.97;28.09;97895.44;5076828;28;1305;-86
2021/07/23 01:33:12;;;;;;;;;;;;;;;22.06;27.77;97892.69;5089603;28;1874;-87
2021/07/23 01:35:38;;;;;;;;;;;;;;;22.15;27.78;97897.75;5088812;28;782;-87
2021/07/23 01:38:08;;;;;;;;;;;;;;;22.19;27.55;97892.75;5089576;28;1297;-87
2021/07/23 01:40:40;;;;;;;;;;;;;;;22.02;27.62;97892.00;5088993;28;750;-87
2021/07/23 01:43:05;;;;;;;;;;;;;;;21.90;28.00;97899.25;5088785;28;1335;-87
2021/07/23 01:45:31;;;;;;;;;;;;;;;21.87;27.84;97896.53;5104849;28;1096;-87
2021/07/23 01:48:15;;;;;;;;;;;;;;;21.98;27.77;97897.00;5090496;28;855;-86
2021/07/23 01:50:40;;;;;;;;;;;;;;;21.98;28.04;97897.81;5089307;28;1296;-87
2021/07/23 01:53:06;;;;;;;;;;;;;;;21.91;27.86;97888.69;5088174;28;1898;-86
2021/07/23 01:55:45;;;;;;;;;;;;;;;21.85;28.00;97885.63;5091032;28;1175;-87
2021/07/23 01:58:11;;;;;;;;;;;;;;;21.84;27.95;97893.34;5088503;28;1201;-86
2021/07/23 02:00:37;;;;;;;;;;;;;;;21.93;27.80;97894.72;5071299;28;1239;-87
2021/07/23 02:03:08;;;;;;;;;;;;;;;22.02;27.71;97887.16;5104977;28;1338;-87
2021/07/23 02:05:34;;;;;;;;;;;;;;;22.26;27.34;97889.69;5105306;28;906;-87
2021/07/23 02:08:00;;;;;;;;;;;;;;;22.16;27.43;97891.63;5088310;28;1373;-86
2021/07/23 02:10:27;;;;;;;;;;;;;;;21.98;27.63;97891.34;5072022;28;790;-87
2021/07/23 02:12:54;;;;;;;;;;;;;;;21.91;27.79;97891.53;5072278;28;1980;-86
2021/07/23 02:15:41;;;;;;;;;;;;;;;21.82;28.24;97890.16;5090981;28;1052;-86
2021/07/23 02:18:10;;;;;;;;;;;;;;;21.83;27.97;97896.63;5072215;28;1413;-86
2021/07/23 02:20:39;;;;;;;;;;;;;;;21.93;27.94;97886.22;5089107;28;1306;-86
2021/07/23 02:23:04;;;;;;;;;;;;;;;21.97;27.71;97889.75;5088651;28;1446;-87
2021/07/23 02:25:38;;;;;;;;;;;;;;;21.98;27.86;97891.34;5074491;28;1261;-86
2021/07/23 02:28:04;;;;;;;;;;;;;;;21.88;27.87;97886.78;5070506;28;1440;-87
2021/07/23 02:30:32;;;;;;;;;;;;;;;21.82;28.05;97892.22;5088162;28;1305;-87
2021/07/23 02:33:23;;;;;;;;;;;;;;;21.95;27.54;97892.22;5102493;28;1949;-87
2021/07/23 02:35:53;;;;;;;;;;;;;;;21.97;27.53;97895.44;5089400;28;1241;-86
2021/07/23 02:38:20;;;;;;;;;;;;;;;21.98;27.77;97889.31;5088341;28;1287;-87
2021/07/23 02:40:51;;;;;;;;;;;;;;;22.02;27.62;97889.16;5073757;28;1179;-86
2021/07/23 02:43:16;;;;;;;;;;;;;;;22.00;27.46;97888.84;5088014;28;1349;-87
2021/07/23 02:45:43;;;;;;;;;;;;;;;21.88;27.90;97886.78;5071154;28;1167;-87
2021/07/23 02:48:10;;;;;;;;;;;;;;;21.84;27.79;97893.34;5071334;28;1114;-87
2021/07/23 02:50:38;;;;;;;;;;;;;;;21.85;27.61;97894.13;5088764;28;1148;-86
2021/07/23 02:53:03;;;;;;;;;;;;;;;21.79;28.09;97895.94;5087836;28;1910;-87
2021/07/23 02:55:32;;;;;;;;;;;;;;;21.91;27.87;97886.66;5088636;28;1200;-87
2021/07/23 02:57:58;;;;;;;;;;;;;;;21.93;28.00;97891.91;5071291;28;1214;-87
2021/07/23 03:00:26;;;;;;;;;;;;;;;21.87;27.89;97880.34;5088627;28;1288;-87
2021/07/23 03:02:54;;;;;;;;;;;;;;;21.88;27.89;97898.91;5071673;28;1166;-87
2021/07/23 03:05:21;;;;;;;;;;;;;;;21.98;27.82;97897.00;5087930;28;1206;-86
2021/07/23 03:07:51;;;;;;;;;;;;;;;21.83;28.00;97897.41;5088338;28;1050;-87
2021/07/23 03:10:17;;;;;;;;;;;;;;;21.90;27.76;97895.63;5105132;28;737;-87
2021/07/23 03:12:43;;;;;;;;;;;;;;;21.84;27.70;97896.16;5071411;28;1887;-87
2021/07/23 03:15:09;;;;;;;;;;;;;;;21.84;27.75;97895.38;5088392;28;1288;-87
2021/07/23 03:17:35;;;;;;;;;;;;;;;21.88;27.83;97898.13;5088486;28;1291;-87
2021/07/23 03:20:05;;;;;;;;;;;;;;;21.79;27.84;97902.38;5088730;28;1392;-86
2021/07/23 03:22:31;;;;;;;;;;;;;;;21.81;27.81;97899.09;5088715;28;1305;-86
2021/07/23 03:25:00;;;;;;;;;;;;;;;21.94;27.92;97896.31;5088114;28;1192;-86
2021/07/23 03:27:55;;;;;;;;;;;;;;;21.83;27.96;97902.28;5075333;28;965;-86
2021/07/23 03:30:33;;;;;;;;;;;;;;;21.84;28.01;97898.22;5089595;28;1378;-86
2021/07/23 03:32:58;;;;;;;;;;;;;;;21.72;28.50;97896.94;5088125;28;1910;-86
2021/07/23 03:35:25;;;;;;;;;;;;;;;21.95;27.99;97897.91;5071412;28;1087;-87
2021/07/23 03:37:50;;;;;;;;;;;;;;;21.92;27.99;97904.47;5071289;28;1199;-86
2021/07/23 03:40:20;;;;;;;;;;;;;;;22.06;27.70;97904.03;5072650;28;1194;-87
2021/07/23 03:42:47;;;;;;;;;;;;;;;21.94;28.00;97899.94;5087622;28;1369;-86
2021/07/23 03:45:17;;;;;;;;;;;;;;;21.97;27.86;97906.75;5087519;28;904;-86
2021/07/23 03:47:48;;;;;;;;;;;;;;;22.03;27.97;97910.63;5089268;28;1308;-87
2021/07/23 03:50:15;;;;;;;;;;;;;;;21.89;28.08;97911.03;5088352;28;1253;-86
2021/07/23 03:52:51;;;;;;;;;;;;;;;21.81;28.23;97916.91;5089845;28;1906;-87
2021/07/23 03:55:35;;;;;;;;;;;;;;;21.86;28.14;97912.72;5091222;28;584;-88
2021/07/23 03:58:01;;;;;;;;;;;;;;;21.75;28.59;97918.69;5088057;28;1196;-86
2021/07/23 04:00:26;;;;;;;;;;;;;;;21.95;28.10;97921.34;5103343;28;1345;-85
2021/07/23 04:02:55;;;;;;;;;;;;;;;21.99;28.19;97921.25;5089635;28;882;-86
2021/07/23 04:05:21;;;;;;;;;;;;;;;21.82;28.39;97924.16;5074252;28;1316;-87
2021/07/23 04:07:47;;;;;;;;;;;;;;;21.77;28.34;97919.03;5091944;28;1350;-87
2021/07/23 04:10:12;;;;;;;;;;;;;;;21.98;27.98;97916.84;5074781;28;1319;-87
2021/07/23 04:12:38;;;;;;;;;;;;;;;21.87;28.37;97913.53;5091629;28;1977;-86
2021/07/23 04:15:08;;;;;;;;;;;;;;;22.01;28.36;97907.41;5090426;28;1278;-88
2021/07/23 04:17:45;;;;;;;;;;;;;;;21.88;28.28;97909.44;5078488;28;1376;-86
2021/07/23 04:20:11;;;;;;;;;;;;;;;21.78;28.30;97906.47;5090977;28;1483;-87
2021/07/23 04:22:36;;;;;;;;;;;;;;;21.85;28.22;97916.78;5075014;28;1259;-86
2021/07/23 04:25:08;;;;;;;;;;;;;;;21.81;28.26;97916.91;5091921;28;1235;-87
2021/07/23 04:27:34;;;;;;;;;;;;;;;21.90;28.10;97906.94;5091165;28;1272;-86
2021/07/23 04:30:08;;;;;;;;;;;;;;;22.03;27.96;97910.63;5076505;28;1190;-86
2021/07/23 04:32:53;;;;;;;;;;;;;;;21.98;28.18;97897.81;5094191;28;1977;-85
2021/07/23 04:35:19;;;;;;;;;;;;;;;21.98;28.13;97902.69;5091384;28;1321;-86
2021/07/23 04:37:44;;;;;;;;;;;;;;;21.99;27.95;97907.09;5091078;28;1172;-86
2021/07/23 04:40:36;;;;;;;;;;;;;;;21.79;28.30;97908.06;5107520;28;1150;-86
2021/07/23 04:43:03;;;;;;;;;;;;;;;21.81;28.62;97910.44;5090777;28;1353;-86
2021/07/23 04:45:29;;;;;;;;;;;;;;;21.91;28.61;97914.19;5072550;28;1169;-85
2021/07/23 04:48:02;;;;;;;;;;;;;;;21.88;28.61;97909.44;5092484;28;1488;-87
2021/07/23 04:50:32;;;;;;;;;;;;;;;21.84;28.76;97916.00;5107721;28;1059;-87
2021/07/23 04:53:17;;;;;;;;;;;;;;;21.85;28.70;97914.75;5107786;28;1976;-86
2021/07/23 04:56:04;;;;;;;;;;;;;;;21.88;28.35;97915.91;5107625;28;651;-87
2021/07/23 04:58:31;;;;;;;;;;;;;;;21.84;28.30;97916.00;5074039;28;1489;-86
2021/07/23 05:00:57;;;;;;;;;;;;;;;21.81;28.71;97921.75;5090778;28;1204;-87
2021/07/23 05:03:23;;;;;;;;;;;;;;;21.82;28.56;97923.38;5090921;28;1494;-87
2021/07/23 05:05:49;;;;;;;;;;;;;;;22.03;28.03;97922.75;5090641;28;729;-87
2021/07/23 05:08:14;;;;;;;;;;;;;;;21.97;28.13;97924.53;5073886;28;1191;-87
2021/07/23 05:10:40;;;;;;;;;;;;;;;21.98;28.30;97925.34;5090544;28;1185;-87
2021/07/23 05:13:06;;;;;;;;;;;;;;;21.94;28.38;97947.31;5072643;28;1882;-86
2021/07/23 05:15:32;;;;;;;;;;;;;;;21.87;28.53;97927.69;5106608;28;981;-87
2021/07/23 05:17:58;;;;;;;;;;;;;;;21.90;28.55;97927.56;5072841;28;1203;-87
2021/07/23 05:20:23;;;;;;;;;;;;;;;21.90;28.34;97935.28;5090407;28;1283;-87
2021/07/23 05:22:49;;;;;;;;;;;;;;;22.04;28.44;97934.88;5089811;28;802;-86
2021/07/23 05:25:14;;;;;;;;;;;;;;;22.03;28.28;97933.28;5090653;28;1206;-87
2021/07/23 05:27:40;;;;;;;;;;;;;;;21.89;28.53;97928.81;5090135;28;1274;-84
2021/07/23 05:46:59;;;;;;;;;;;;;;;21.91;28.69;97936.84;5631100;23;1814;-77
2021/07/23 05:49:25;;;;;;;;;;;;;;;21.81;28.65;97931.06;5021839;28;858;-80
2021/07/23 05:51:50;;;;;;;;;;;;;;;21.85;28.64;97934.56;5020369;28;992;-78
2021/07/23 05:54:16;;;;;;;;;;;;;;;21.95;28.55;97932.69;5021210;28;1985;-77
2021/07/23 05:56:41;;;;;;;;;;;;;;;21.91;28.67;97943.31;5021359;28;690;-80
2021/07/23 05:59:07;;;;;;;;;;;;;;;21.98;28.41;97936.66;5021414;28;645;-79
2021/07/23 06:01:32;;;;;;;;;;;;;;;22.04;28.41;97930.00;5021167;28;637;-79
2021/07/23 06:03:59;;;;;;;;;;;;;;;21.95;28.78;97940.38;5021123;28;968;-79
2021/07/23 06:06:24;;;;;;;;;;;;;;;21.96;28.89;97933.47;5020975;28;863;-79
2021/07/23 06:08:50;;;;;;;;;;;;;;;21.93;29.08;97923.06;5021147;28;1008;-79
2021/07/23 06:11:15;;;;;;;;;;;;;;;22.06;28.56;97926.69;5021242;28;579;-79
2021/07/23 06:13:41;;;;;;;;;;;;;;;22.03;28.64;97921.94;5020933;28;1906;-80
2021/07/23 06:16:07;;;;;;;;;;;;;;;22.04;28.59;97929.19;5021413;28;705;-79
2021/07/23 06:18:35;;;;;;;;;;;;;;;21.87;29.22;97920.00;5020775;28;898;-80
2021/07/23 06:21:00;;;;;;;;;;;;;;;21.96;29.05;97917.28;5020585;28;945;-80
2021/07/23 06:23:26;;;;;;;;;;;;;;;21.97;29.13;97923.75;5019858;28;823;-79
2021/07/23 06:25:51;;;;;;;;;;;;;;;22.05;29.13;97916.63;5019680;28;699;-79
2021/07/23 06:28:17;;;;;;;;;;;;;;;22.06;29.09;97923.88;5020934;28;603;-79
2021/07/23 06:30:42;;;;;;;;;;;;;;;22.02;28.79;97914.66;5020998;28;638;-77
2021/07/23 06:33:08;;;;;;;;;;;;;;;21.88;29.09;97915.13;5020371;28;1972;-79
2021/07/23 06:35:33;;;;;;;;;;;;;;;21.90;29.20;97918.28;5020495;28;918;-79
2021/07/23 06:37:59;;;;;;;;;;;;;;;22.00;29.06;97917.16;5020853;28;975;-79
2021/07/23 06:40:25;;;;;;;;;;;;;;;22.02;29.06;97920.34;5019945;28;730;-80
2021/07/23 06:42:50;;;;;;;;;;;;;;;22.04;29.10;97915.03;5019817;28;892;-79
2021/07/23 06:45:17;;;;;;;;;;;;;;;22.06;28.89;97915.38;5020268;28;897;-77
2021/07/23 06:47:43;;;;;;;;;;;;;;;22.09;29.12;97912.44;5019095;28;1363;-79
2021/07/23 06:50:08;;;;;;;;;;;;;;;22.06;29.29;97915.38;5019909;28;851;-79
2021/07/23 06:52:34;;;;;;;;;;;;;;;22.02;29.25;97909.81;5020173;28;976;-79
2021/07/23 06:55:00;;;;;;;;;;;;;;;22.09;28.87;97908.81;5020274;28;1987;-80
2021/07/23 06:57:25;;;;;;;;;;;;;;;22.01;29.09;97911.03;5019149;28;838;-80
2021/07/23 06:59:51;;;;;;;;;;;;;;;22.05;29.16;97914.56;5020109;28;702;-79
2021/07/23 07:02:16;;;;;;;;;;;;;;;21.85;29.48;97914.75;5019730;28;948;-80
2021/07/23 07:04:44;;;;;;;;;;;;;;;21.96;29.40;97902.31;5019803;28;918;-79
2021/07/23 07:07:11;;;;;;;;;;;;;;;22.10;29.17;97910.41;5020143;28;722;-79
2021/07/23 07:09:37;;;;;;;;;;;;;;;22.02;29.17;97909.00;5019958;28;702;-79
2021/07/23 07:12:02;;;;;;;;;;;;;;;22.09;29.04;97908.81;5019999;28;662;-80
2021/07/23 07:14:28;;;;;;;;;;;;;;;22.11;29.21;97912.00;5020054;28;1910;-79
2021/07/23 07:16:53;;;;;;;;;;;;;;;21.96;29.73;97905.16;5019578;28;1027;-79
2021/07/23 07:19:19;;;;;;;;;;;;;;;22.08;29.44;97908.03;5018944;28;1313;-79
2021/07/23 07:21:50;;;;;;;;;;;;;;;22.05;29.49;97908.91;5019838;28;842;-79
2021/07/23 07:24:19;;;;;;;;;;;;;;;22.06;29.30;97915.38;5019953;28;666;-79
2021/07/23 07:26:45;;;;;;;;;;;;;;;22.07;29.20;97906.44;5020223;28;674;-79
2021/07/23 07:29:11;;;;;;;;;;;;;;;22.04;29.62;97909.38;5018948;28;862;-79
2021/07/23 07:31:37;;;;;;;;;;;;;;;22.12;29.62;97907.91;5018783;28;834;-79
2021/07/23 07:34:03;;;;;;;;;;;;;;;22.09;29.31;97905.97;5019516;28;1910;-79
2021/07/23 07:36:28;;;;;;;;;;;;;;;21.93;29.54;97914.56;5020585;28;905;-79
2021/07/23 07:38:57;;;;;;;;;;;;;;;22.07;29.25;97911.28;5023637;28;695;-79
2021/07/23 07:41:23;;;;;;;;;;;;;;;22.07;29.23;97905.63;5023576;28;693;-80
2021/07/23 07:43:48;;;;;;;;;;;;;;;22.00;29.50;97912.31;5023454;28;689;-79
2021/07/23 07:46:14;;;;;;;;;;;;;;;22.16;29.34;97905.00;5023148;28;1054;-78
2021/07/23 07:48:39;;;;;;;;;;;;;;;22.14;29.27;97916.78;5022489;28;808;-80
2021/07/23 07:51:08;;;;;;;;;;;;;;;22.16;29.39;97911.44;5023335;28;826;-80
2021/07/23 07:53:34;;;;;;;;;;;;;;;22.23;29.15;97901.97;5022574;28;1906;-80
2021/07/23 07:55:59;;;;;;;;;;;;;;;22.14;29.35;97911.13;5022824;28;710;-80
2021/07/23 07:58:25;;;;;;;;;;;;;;;22.27;29.09;97914.75;5022789;28;1004;-81
2021/07/23 08:00:50;;;;;;;;;;;;;;;22.33;29.14;97912.16;5038770;28;1299;-79
2021/07/23 08:03:16;;;;;;;;;;;;;;;22.08;29.26;97910.84;5023303;28;882;-80
2021/07/23 08:05:41;;;;;;;;;;;;;;;22.07;29.41;97916.94;5023095;28;673;-80
2021/07/23 08:08:09;;;;;;;;;;;;;;;22.12;29.47;97919.25;5023105;28;726;-80
2021/07/23 08:10:36;;;;;;;;;;;;;;;22.21;29.11;97916.56;5022386;28;802;-80
2021/07/23 08:13:02;;;;;;;;;;;;;;;22.18;29.20;97923.16;5023076;28;1910;-80
2021/07/23 08:15:40;;;;;;;;;;;;;;;22.14;29.48;97928.13;5022684;28;870;-79
2021/07/23 08:18:05;;;;;;;;;;;;;;;22.16;29.21;97922.78;5022520;28;994;-79
2021/07/23 08:20:32;;;;;;;;;;;;;;;22.38;29.00;97924.97;5022078;28;1150;-80
2021/07/23 08:22:57;;;;;;;;;;;;;;;22.21;29.15;97927.91;5022192;28;626;-80
2021/07/23 08:25:23;;;;;;;;;;;;;;;22.13;29.56;97926.53;5022065;28;600;-80
2021/07/23 08:27:56;;;;;;;;;;;;;;;22.10;29.32;97916.06;5022963;28;715;-80
2021/07/23 08:30:22;;;;;;;;;;;;;;;22.27;29.24;97914.75;5022772;28;887;-80
2021/07/23 08:32:49;;;;;;;;;;;;;;;22.26;29.31;97924.50;5022346;28;923;-79
2021/07/23 08:35:17;;;;;;;;;;;;;;;22.06;29.48;97921.81;5022466;28;917;-79
2021/07/23 08:37:45;;;;;;;;;;;;;;;22.08;29.70;97925.03;5022482;28;662;-79
2021/07/23 08:40:13;;;;;;;;;;;;;;;22.03;29.85;97924.78;5022617;28;677;-80
2021/07/23 08:42:42;;;;;;;;;;;;;;;22.08;29.31;97918.56;5022393;28;676;-80
2021/07/23 08:45:12;;;;;;;;;;;;;;;22.17;29.45;97915.06;5022055;28;942;-80
2021/07/23 08:47:42;;;;;;;;;;;;;;;22.27;29.12;97926.09;5022077;28;1124;-80
2021/07/23 08:50:12;;;;;;;;;;;;;;;22.41;28.85;97924.88;5021195;28;870;-80
2021/07/23 08:52:45;;;;;;;;;;;;;;;22.23;29.12;97922.59;5022265;28;651;-78
2021/07/23 08:55:16;;;;;;;;;;;;;;;22.18;29.20;97917.47;5022059;28;1914;-79
2021/07/23 08:57:47;;;;;;;;;;;;;;;22.15;29.52;97924.03;5021492;28;1110;-79
2021/07/23 09:00:21;;;;;;;;;;;;;;;22.15;29.21;97926.88;5000614;28;937;-79
2021/07/23 09:02:54;;;;;;;;;;;;;;;22.23;29.18;97919.75;5001095;28;1231;-80
2021/07/23 09:05:27;;;;;;;;;;;;;;;22.10;29.54;97921.72;4981501;28;871;-80
2021/07/23 09:08:02;;;;;;;;;;;;;;;22.13;29.41;97926.53;4958592;28;1200;-80
2021/07/23 09:10:35;;;;;;;;;;;;;;;22.18;29.24;97911.81;4942545;29;965;-80
2021/07/23 09:13:23;;;;;;;;;;;;;;;22.25;29.37;97920.09;4904731;29;1903;-80
2021/07/23 09:16:01;;;;;;;;;;;;;;;22.07;29.58;97912.09;4876196;29;938;-80
2021/07/23 09:18:42;;;;;;;;;;;;;;;22.29;29.29;97917.94;4867196;29;865;-80
2021/07/23 09:21:25;;;;;;;;;;;;;;;22.29;29.01;97917.16;4867584;29;990;-80
2021/07/23 09:24:23;;;;;;;;;;;;;;;22.32;29.22;97911.34;4835342;29;1144;-80
2021/07/23 09:27:16;;;;;;;;;;;;;;;22.20;29.22;97914.97;4850914;29;1190;-80
2021/07/23 09:30:13;;;;;;;;;;;;;;;22.15;29.42;97915.53;4852298;29;1175;-79
2021/07/23 09:33:30;;;;;;;;;;;;;;;22.18;29.57;97905.34;4876874;29;1903;-79
2021/07/23 09:36:38;;;;;;;;;;;;;;;22.30;29.25;97902.53;4875041;29;1218;-77
2021/07/23 09:39:33;;;;;;;;;;;;;;;22.09;29.37;97898.28;4859497;29;1254;-78
2021/07/23 09:42:19;;;;;;;;;;;;;;;22.08;29.71;97907.22;4820323;29;1207;-79
2021/07/23 09:45:28;;;;;;;;;;;;;;;22.19;29.24;97901.25;4833010;29;1286;-80
2021/07/23 09:48:20;;;;;;;;;;;;;;;22.29;29.46;97894.47;4847080;29;1285;-80
2021/07/23 09:51:12;;;;;;;;;;;;;;;22.30;29.12;97898.88;4832386;29;1116;-78
2021/07/23 09:54:38;;;;;;;;;;;;;;;22.31;29.01;97898.44;4864012;29;1907;-80
2021/07/23 09:57:03;;;;;;;;;;;;;;;22.14;29.53;97899.00;4848279;29;1222;-80
2021/07/23 09:59:47;;;;;;;;;;;;;;;22.19;29.45;97899.22;4839087;29;1257;-79
2021/07/23 10:02:18;;;;;;;;;;;;;;;22.28;29.06;97896.53;4877349;29;892;-81
2021/07/23 10:05:03;;;;;;;;;;;;;;;22.27;29.16;97891.28;4924743;29;767;-79
2021/07/23 10:07:29;;;;;;;;;;;;;;;22.31;29.01;97894.81;4922612;29;952;-80
2021/07/23 10:09:55;;;;;;;;;;;;;;;22.13;29.33;97898.19;4923015;29;956;-79
2021/07/23 10:12:20;;;;;;;;;;;;;;;22.03;29.44;97887.94;4922765;29;968;-80
2021/07/23 10:14:46;;;;;;;;;;;;;;;22.15;29.26;97895.69;4926111;29;1907;-80
2021/07/23 10:17:12;;;;;;;;;;;;;;;22.29;29.06;97889.59;4942150;29;958;-80
2021/07/23 10:19:37;;;;;;;;;;;;;;;22.32;29.22;97882.22;4926053;29;616;-80
2021/07/23 10:22:03;;;;;;;;;;;;;;;22.34;28.90;97891.88;4925983;29;930;-79
2021/07/23 10:24:31;;;;;;;;;;;;;;;22.39;29.06;97878.38;4925843;29;860;-80
2021/07/23 10:26:57;;;;;;;;;;;;;;;22.39;28.83;97886.88;4926047;28;1103;-80
2021/07/23 10:29:41;;;;;;;;;;;;;;;22.24;29.37;97881.66;4942064;29;675;-80
2021/07/23 10:32:27;;;;;;;;;;;;;;;22.28;29.10;97881.56;4941849;29;1109;-80
2021/07/23 10:34:56;;;;;;;;;;;;;;;22.24;29.22;97887.31;4940999;29;1907;-80
2021/07/23 10:37:30;;;;;;;;;;;;;;;22.21;29.36;97893.09;4941102;29;955;-80
2021/07/23 10:40:08;;;;;;;;;;;;;;;22.24;29.11;97881.66;4941425;29;751;-80
2021/07/23 10:42:40;;;;;;;;;;;;;;;22.27;29.21;97880.72;4941341;29;635;-80
2021/07/23 10:45:06;;;;;;;;;;;;;;;22.27;29.24;97875.06;4925802;29;843;-79
2021/07/23 10:47:44;;;;;;;;;;;;;;;22.33;29.19;97873.28;4925413;29;1292;-80
2021/07/23 10:50:24;;;;;;;;;;;;;;;22.33;29.30;97884.63;4941025;29;1070;-79
2021/07/23 10:52:50;;;;;;;;;;;;;;;22.19;29.16;97882.22;4940987;29;1052;-80
2021/07/23 10:55:16;;;;;;;;;;;;;;;22.36;29.05;97880.84;4925488;29;1919;-79
2021/07/23 10:57:42;;;;;;;;;;;;;;;22.39;28.76;97875.53;4941639;29;647;-80
2021/07/23 11:00:08;;;;;;;;;;;;;;;22.16;29.23;97868.94;4925795;29;799;-80
2021/07/23 11:02:33;;;;;;;;;;;;;;;22.28;29.28;97875.88;4946143;28;1102;-80
2021/07/23 11:05:17;;;;;;;;;;;;;;;22.23;29.09;97880.06;4980658;28;937;-80
2021/07/23 11:07:43;;;;;;;;;;;;;;;22.23;29.27;97874.41;4980302;28;836;-80
2021/07/23 11:10:09;;;;;;;;;;;;;;;22.28;29.16;97876.69;4981002;28;710;-80
2021/07/23 11:12:40;;;;;;;;;;;;;;;22.28;29.22;97865.34;4983149;28;432;-79
2021/07/23 11:15:07;;;;;;;;;;;;;;;22.35;29.16;97865.09;4984990;28;1910;-80
2021/07/23 11:17:33;;;;;;;;;;;;;;;22.30;29.05;97862.84;4984737;28;952;-79
2021/07/23 11:20:01;;;;;;;;;;;;;;;22.35;28.84;97865.09;4983900;28;940;-80
2021/07/23 11:22:28;;;;;;;;;;;;;;;22.35;28.92;97859.44;4968273;28;979;-80
2021/07/23 11:24:57;;;;;;;;;;;;;;;22.31;28.86;97863.63;4984973;28;815;-79
2021/07/23 11:27:25;;;;;;;;;;;;;;;22.27;29.16;97869.41;4985195;28;631;-80
2021/07/23 11:29:52;;;;;;;;;;;;;;;22.25;29.48;97860.56;4984048;28;607;-79
2021/07/23 11:32:18;;;;;;;;;;;;;;;22.25;29.14;97854.91;4984294;28;995;-79
2021/07/23 11:34:44;;;;;;;;;;;;;;;22.32;29.00;97859.53;4984659;28;1972;-79
2021/07/23 11:37:29;;;;;;;;;;;;;;;22.32;29.05;97857.50;4984592;28;883;-79
2021/07/23 11:40:01;;;;;;;;;;;;;;;22.31;29.01;97858.75;4984490;28;646;-79
2021/07/23 11:42:34;;;;;;;;;;;;;;;22.16;29.35;97860.44;4984458;28;678;-79
2021/07/23 11:45:00;;;;;;;;;;;;;;;22.21;29.28;97853.41;4983403;28;877;-79
2021/07/23 11:47:29;;;;;;;;;;;;;;;22.24;29.34;97853.31;4983413;28;1149;-80
2021/07/23 11:49:56;;;;;;;;;;;;;;;22.38;29.22;97845.59;4984109;28;846;-79
2021/07/23 11:52:30;;;;;;;;;;;;;;;22.28;29.27;97841.88;4983434;28;960;-79
2021/07/23 11:54:56;;;;;;;;;;;;;;;22.41;29.12;97853.19;4984247;28;1907;-79
2021/07/23 11:57:38;;;;;;;;;;;;;;;22.26;29.38;97855.69;4984233;28;658;-80
2021/07/23 12:00:19;;;;;;;;;;;;;;;22.21;29.45;97848.53;4984152;28;662;-80
2021/07/23 12:02:45;;;;;;;;;;;;;;;22.19;29.49;97845.38;4984324;28;646;-80
2021/07/23 12:05:11;;;;;;;;;;;;;;;22.21;29.35;97842.09;4983071;28;890;-79
2021/07/23 12:07:37;;;;;;;;;;;;;;;22.15;29.48;97839.03;4983061;28;1251;-80
2021/07/23 12:10:03;;;;;;;;;;;;;;;22.19;29.53;97836.88;4983938;28;1092;-79
2021/07/23 12:12:29;;;;;;;;;;;;;;;22.33;29.33;97839.25;4984010;28;709;-80
2021/07/23 12:15:00;;;;;;;;;;;;;;;22.31;29.19;97847.41;4983130;28;1940;-80
2021/07/23 12:17:26;;;;;;;;;;;;;;;22.35;29.29;97836.75;4983624;28;979;-80
2021/07/23 12:19:55;;;;;;;;;;;;;;;22.24;29.05;97835.53;4983457;28;939;-80
2021/07/23 12:22:20;;;;;;;;;;;;;;;22.32;29.11;97843.31;4983535;28;1098;-80
2021/07/23 12:24:46;;;;;;;;;;;;;;;22.33;29.03;97838.47;4982881;28;611;-79
2021/07/23 12:27:18;;;;;;;;;;;;;;;22.35;29.24;97833.13;4983630;28;603;-80
2021/07/23 12:29:44;;;;;;;;;;;;;;;22.28;29.13;97831.31;4983618;28;698;-79
2021/07/23 12:32:14;;;;;;;;;;;;;;;22.32;29.08;97831.19;4982219;28;1116;-80
2021/07/23 12:34:40;;;;;;;;;;;;;;;22.35;29.34;97831.09;4982412;28;1915;-79
2021/07/23 12:37:14;;;;;;;;;;;;;;;22.35;29.09;97836.75;4983569;28;954;-80
2021/07/23 12:40:00;;;;;;;;;;;;;;;22.35;29.03;97836.75;4982518;28;740;-79
2021/07/23 12:42:26;;;;;;;;;;;;;;;22.17;29.39;97830.84;4983351;28;608;-79
2021/07/23 12:44:52;;;;;;;;;;;;;;;22.18;29.37;97835.28;4983378;28;687;-79
2021/07/23 12:47:17;;;;;;;;;;;;;;;22.18;29.40;97832.47;4982840;28;947;-79
2021/07/23 12:49:43;;;;;;;;;;;;;;;22.29;29.47;97841.41;4983148;28;989;-80
2021/07/23 12:52:08;;;;;;;;;;;;;;;22.45;29.06;97825.53;4982816;28;970;-79
2021/07/23 12:54:35;;;;;;;;;;;;;;;22.33;28.98;97833.59;4982520;28;1910;-79
2021/07/23 12:57:10;;;;;;;;;;;;;;;22.34;28.99;97840.84;4983096;28;721;-80
2021/07/23 12:59:36;;;;;;;;;;;;;;;22.20;29.53;97841.28;4983213;28;718;-79
2021/07/23 13:02:02;;;;;;;;;;;;;;;22.51;29.07;97837.88;4982419;28;696;-79
2021/07/23 13:04:27;;;;;;;;;;;;;;;22.35;28.97;97836.75;4982593;28;988;-80
2021/07/23 13:06:52;;;;;;;;;;;;;;;22.25;29.28;97831.44;4982740;28;869;-79
2021/07/23 13:09:18;;;;;;;;;;;;;;;22.20;29.15;97829.16;4983350;28;965;-80
2021/07/23 13:11:43;;;;;;;;;;;;;;;22.34;28.79;97835.19;4982810;28;664;-80
2021/07/23 13:14:09;;;;;;;;;;;;;;;22.35;28.93;97835.97;4982572;28;1891;-80
2021/07/23 13:16:34;;;;;;;;;;;;;;;22.32;28.95;97842.53;4981917;28;918;-80
2021/07/23 13:19:00;;;;;;;;;;;;;;;22.42;28.97;97834.94;4982314;28;859;-80
2021/07/23 13:21:26;;;;;;;;;;;;;;;22.33;29.14;97838.47;4983074;28;968;-79
2021/07/23 13:23:52;;;;;;;;;;;;;;;22.25;29.30;97837.88;4982466;28;654;-79
2021/07/23 13:26:18;;;;;;;;;;;;;;;22.26;29.28;97839.47;4982059;28;678;-80
2021/07/23 13:28:43;;;;;;;;;;;;;;;22.27;29.23;97841.06;4982451;28;622;-80
2021/07/23 13:31:09;;;;;;;;;;;;;;;22.23;29.18;97834.72;4982336;28;898;-80
2021/07/23 13:33:35;;;;;;;;;;;;;;;22.30;29.14;97828.03;4982129;28;1964;-80